Flight Track Log - Related Links

Times and Time Zones

All times are in EDT time to prevent confusion due to time zone crossing. See the EJA727 flight status page for this flight to view local times or setup timezone preferences in your user account.


Time Position Orientation Groundspeed Altitude Reporting Facility
EDT Latitude Longitude Course Direction KTS MPH feet Rate Location/Type
Sun 01:20:05 PM 26.6731 -80.0114 338° Northwest 222 255 4,200  Level Miami Center
Sun 01:21:05 PM 26.6225 -80.0242 193° South 251 289 7,400 2,900 Climbing Miami Center
Sun 01:22:05 PM 26.6203 -80.1261 269° West 261 300 10,000 1,300 Climbing Miami Center
Sun 01:23:05 PM 26.6244 -80.2217 273° West 296 341 10,000  Level Miami Center
Sun 01:24:05 PM 26.6267 -80.3053 272° West 304 350 10,000 850 Level Miami Center
Sun 01:25:00 PM 27.0589 -80.4132 338° Northwest  Level FlightAware Approximate
Sun 01:25:05 PM 26.6642 -80.3900 296° West 289 333 11,700  Level Miami Center
Sun 01:26:05 PM 26.7406 -80.4367 331° Northwest 300 345 13,800 2,450 Climbing Miami Center
Sun 01:27:05 PM 26.8431 -80.5050 329° Northwest 356 410 16,600 2,650 Climbing Miami Center
Sun 01:28:05 PM 26.9339 -80.5544 334° Northwest 388 447 19,100 2,600 Climbing Miami Center
Sun 01:29:05 PM 27.0389 -80.6042 337° Northwest 406 467 21,800 2,550 Climbing Miami Center
Sun 01:30:05 PM 27.1483 -80.6544 338° Northwest 413 475 24,200 2,200 Climbing Miami Center
Sun 01:31:05 PM 27.2575 -80.7094 336° Northwest 418 481 26,200 1,800 Climbing Miami Center
Sun 01:32:05 PM 27.3731 -80.7647 337° Northwest 430 495 27,800 1,400 Climbing Miami Center
Sun 01:33:05 PM 27.4925 -80.8181 338° Northwest 447 514 29,000 600 Climbing Miami Center
Sun 01:34:05 PM 27.6072 -80.8969 329° Northwest 460 529 29,000 700 Level Miami Center
Sun 01:35:05 PM 27.7217 -80.9831 326° Northwest 482 555 30,400 1,700 Climbing Miami Center
Sun 01:36:05 PM 27.8278 -81.0714 324° Northwest 488 562 32,400 1,300 Climbing Miami Center
Sun 01:37:05 PM 27.9417 -81.1742 321° Northwest 480 552 33,000 400 Climbing Miami Center
Sun 01:38:05 PM 28.0261 -81.2739 314° West 485 558 33,200 700 Climbing Miami Center
Sun 01:39:05 PM 28.0678 -81.4144 289° West 477 549 34,400 1,550 Climbing Miami Center
Sun 01:40:05 PM 28.0733 -81.5603 273° West 457 526 36,300 1,700 Climbing Miami Center
Sun 01:41:05 PM 28.0897 -81.7022 277° West 457 526 37,800 1,250 Climbing Miami Center
Sun 01:42:05 PM 28.1586 -81.8206 303° West 443 510 38,800 600 Climbing Miami Center
Sun 01:43:05 PM 28.2731 -81.8892 332° Northwest 432 497 39,000 130 Climbing Miami Center
Sun 01:43:37 PM 28.3569 -81.8972 355° North 442 509 39,000  Level Jacksonville Center
Sun 01:44:37 PM 28.4903 -81.8911 North 442 509 39,000  Level Jacksonville Center
Sun 01:45:37 PM 28.6261 -81.8922 360° North 442 509 39,000  Level Jacksonville Center
Sun 01:46:37 PM 28.7575 -81.8836 North 481 554 39,000  Level Jacksonville Center
Sun 01:47:36 PM 28.8911 -81.8872 359° North 472 543 39,000  Level Jacksonville Center
Sun 01:48:36 PM 29.0225 -81.8881 360° North 461 531 39,000  Level Jacksonville Center
Sun 01:49:36 PM 29.1561 -81.8867 North 474 545 39,000  Level Jacksonville Center
Sun 01:50:36 PM 29.2750 -81.8903 358° North 481 554 39,000  Level Jacksonville Center
Sun 01:51:37 PM 29.4086 -81.8914 360° North 476 548 39,000  Level Jacksonville Center
Sun 01:52:37 PM 29.5444 -81.8922 360° North 476 548 39,000  Level Jacksonville Center
Sun 01:53:37 PM 29.6781 -81.8981 358° North 476 548 39,000  Level Jacksonville Center
Sun 01:54:36 PM 29.8097 -81.9017 359° North 476 548 39,000  Level Jacksonville Center
Sun 01:55:37 PM 29.9433 -81.9050 359° North 476 548 39,000  Level Jacksonville Center
Sun 01:56:37 PM 30.0811 -81.9036 360° North 476 548 39,000  Level Jacksonville Center
Sun 01:57:37 PM 30.2147 -81.9119 357° North 476 548 39,000  Level Jacksonville Center
Sun 01:58:37 PM 30.3483 -81.9225 356° North 476 548 39,000  Level Jacksonville Center
Sun 01:59:37 PM 30.4800 -81.9308 357° North 476 548 39,000  Level Jacksonville Center
Sun 02:00:37 PM 30.6325 -81.9461 355° North 482 555 39,000  Level Jacksonville Center
Sun 02:01:37 PM 30.7642 -81.9569 356° North 482 555 39,000  Level Jacksonville Center
Sun 02:02:37 PM 30.8978 -81.9653 357° North 482 555 39,000  Level Jacksonville Center
Sun 02:03:37 PM 31.0336 -81.9761 356° North 482 555 39,000  Level Jacksonville Center
Sun 02:04:36 PM 31.1694 -81.9869 356° North 482 555 39,000  Level Jacksonville Center
Sun 02:05:37 PM 31.3053 -81.9931 358° North 480 552 39,000  Level Jacksonville Center
Sun 02:06:37 PM 31.4369 -82.0014 357° North 475 547 39,000  Level Jacksonville Center
Sun 02:07:37 PM 31.5747 -82.0147 355° North 489 563 39,000  Level Jacksonville Center
Sun 02:08:37 PM 31.7064 -82.0208 358° North 482 555 39,000  Level Jacksonville Center
Sun 02:09:37 PM 31.8422 -82.0317 356° North 481 554 39,000  Level Jacksonville Center
Sun 02:10:37 PM 31.9633 -82.0381 357° North 481 554 39,000  Level Jacksonville Center
Sun 02:11:37 PM 32.1117 -82.0489 356° North 481 554 39,000  Level Jacksonville Center
Sun 02:13:18 PM 32.3381 -82.0622 357° North 500 575 39,000  Level Atlanta Center
Sun 02:14:18 PM 32.4614 -82.0719 356° North 490 564 39,000  Level Atlanta Center
Sun 02:15:18 PM 32.5953 -82.0811 357° North 485 558 39,000 -100 Level Atlanta Center
Sun 02:16:18 PM 32.7289 -82.0931 356° North 478 550 38,800 -850 Descending Atlanta Center
Sun 02:17:18 PM 32.8628 -82.1025 357° North 484 557 37,300 -1,500 Descending Atlanta Center
Sun 02:18:18 PM 32.9983 -82.1119 357° North 479 551 35,800 -1,150 Descending Atlanta Center
Sun 02:19:18 PM 33.1383 -82.1211 357° North 484 557 35,000 -400 Descending Atlanta Center
Sun 02:20:18 PM 33.2764 -82.1306 357° North 489 563 35,000  Level Atlanta Center
Sun 02:21:18 PM 33.4164 -82.1400 357° North 494 568 35,000 -50 Level Atlanta Center
Sun 02:22:18 PM 33.5542 -82.1494 357° North 499 574 34,900 -750 Descending Atlanta Center
Sun 02:23:18 PM 33.6944 -82.1661 354° North 499 574 33,500 -1,900 Descending Atlanta Center
Sun 02:24:18 PM 33.8394 -82.2331 339° North 499 574 31,100 -2,100 Descending Atlanta Center
Sun 02:25:18 PM 33.9550 -82.2858 339° North 499 574 29,300 -1,950 Descending Atlanta Center
Sun 02:26:18 PM 34.0908 -82.3106 351° North 482 555 27,200 -2,050 Descending Atlanta Center
Sun 02:27:18 PM 34.2458 -82.3375 352° North 492 566 25,200 -2,000 Descending Atlanta Center
Sun 02:28:18 PM 34.3839 -82.3600 352° North 497 572 23,200 -2,000 Descending Atlanta Center
Sun 02:29:18 PM 34.5178 -82.3850 351° North 497 572 21,200 -2,000 Descending Atlanta Center
Sun 02:30:18 PM 34.6411 -82.4053 352° North 476 548 19,200 -1,900 Descending Atlanta Center
Sun 02:31:18 PM 34.7603 -82.4231 353° North 448 516 17,400 -1,900 Descending Atlanta Center
Sun 02:32:18 PM 34.8714 -82.4464 350° North 426 490 15,400 -2,000 Descending Atlanta Center
Sun 02:33:18 PM 34.9800 -82.4644 352° North 403 464 13,400 -2,000 Descending Atlanta Center
Sun 02:34:18 PM 35.0678 -82.4831 350° North 374 430 11,400 -2,050 Descending Atlanta Center
Sun 02:35:18 PM 35.1533 -82.4714 North 320 368 9,300 -1,500 Descending Atlanta Center
Sun 02:36:18 PM 35.2261 -82.4522 12° North 289 333 8,400 -1,800 Descending Atlanta Center
Sun 02:37:18 PM 35.2806 -82.4742 342° North 249 287 5,700 -1,650 Descending Atlanta Center
Sun 02:38:18 PM 35.3519 -82.4983 345° North 233 268 5,100 9,150 Descending Atlanta Center
Sun 02:39:18 PM 35.4147 -82.5175 346° North 233 268 24,000 9,450 Climbing Atlanta Center
Sun 02:40:18 PM 35.4775 -82.5342 348° North 233 268 24,000  Level Atlanta Center
Sun 02:41:18 PM 35.5153 -82.5461 346° North 233 268 24,000  Level Atlanta Center

Login

Don't have an account? Register now (free) for customized features, flight alerts, and more!